Terminal Aerodrome Forecast
Issued by NWS Northern Indiana

Home | Current Version | Previous Version | Graphics & Text | Print | Product List | Glossary On
Versions: 1 2 3 4 5 6 7 8 9 10 11 12 13 14 15 16 17 18
000
FTUS43 KIWX 211137
TAFFWA
TAF
KFWA 211137Z 2112/2212 17004KT 1/4SM -DZ FG OVC002
      TEMPO 2112/2116 1/2SM OVC003
     FM211700 19006KT 2SM -DZ BR OVC006
     FM212300 18005KT 1/2SM -RA FG OVC003
     FM220600 16005KT 1/4SM RA FG VV002=

USA.gov is the U.S. government's official web portal to all federal, state and local government web resources and services.